sensor_id;sensor_type;location;lat;lon;timestamp;pressure;altitude;pressure_sealevel;temperature;humidity
56038;BME280;41907;47.848;9.000;2023-03-14T00:00:35;94521.66;;;8.90;100.00
56038;BME280;41907;47.848;9.000;2023-03-14T00:03:01;94502.28;;;8.90;100.00
56038;BME280;41907;47.848;9.000;2023-03-14T00:05:26;94499.28;;;8.91;100.00
56038;BME280;41907;47.848;9.000;2023-03-14T00:07:52;94484.34;;;8.87;100.00
56038;BME280;41907;47.848;9.000;2023-03-14T00:10:17;94477.66;;;8.81;100.00
56038;BME280;41907;47.848;9.000;2023-03-14T00:12:43;94468.00;;;8.76;100.00
56038;BME280;41907;47.848;9.000;2023-03-14T00:15:09;94460.44;;;8.66;100.00
56038;BME280;41907;47.848;9.000;2023-03-14T00:17:35;94461.22;;;8.67;100.00
56038;BME280;41907;47.848;9.000;2023-03-14T00:20:02;94460.28;;;8.63;100.00
56038;BME280;41907;47.848;9.000;2023-03-14T00:22:30;94457.63;;;8.63;100.00
56038;BME280;41907;47.848;9.000;2023-03-14T00:24:55;94428.16;;;8.35;100.00
56038;BME280;41907;47.848;9.000;2023-03-14T00:27:21;94421.44;;;8.37;100.00
56038;BME280;41907;47.848;9.000;2023-03-14T00:29:46;94425.50;;;8.35;100.00
56038;BME280;41907;47.848;9.000;2023-03-14T00:32:11;94432.94;;;8.41;100.00
56038;BME280;41907;47.848;9.000;2023-03-14T00:34:37;94424.66;;;8.43;100.00
56038;BME280;41907;47.848;9.000;2023-03-14T00:37:02;94440.59;;;8.43;100.00
56038;BME280;41907;47.848;9.000;2023-03-14T00:39:28;94442.63;;;8.46;100.00
56038;BME280;41907;47.848;9.000;2023-03-14T00:41:53;94409.50;;;8.43;100.00
56038;BME280;41907;47.848;9.000;2023-03-14T00:44:18;94411.13;;;8.36;100.00
56038;BME280;41907;47.848;9.000;2023-03-14T00:46:43;94422.25;;;8.29;100.00
56038;BME280;41907;47.848;9.000;2023-03-14T00:49:09;94402.81;;;8.16;100.00
56038;BME280;41907;47.848;9.000;2023-03-14T00:51:34;94410.00;;;8.16;100.00
56038;BME280;41907;47.848;9.000;2023-03-14T00:54:00;94397.63;;;8.20;100.00
56038;BME280;41907;47.848;9.000;2023-03-14T00:56:25;94388.53;;;8.21;100.00
56038;BME280;41907;47.848;9.000;2023-03-14T00:58:55;94369.78;;;8.26;100.00
56038;BME280;41907;47.848;9.000;2023-03-14T01:01:20;94384.47;;;8.23;100.00
56038;BME280;41907;47.848;9.000;2023-03-14T01:03:50;94372.88;;;8.28;100.00
56038;BME280;41907;47.848;9.000;2023-03-14T01:06:18;94371.78;;;8.29;100.00
56038;BME280;41907;47.848;9.000;2023-03-14T01:08:44;94373.03;;;8.32;100.00
56038;BME280;41907;47.848;9.000;2023-03-14T01:11:12;94369.91;;;8.30;100.00
56038;BME280;41907;47.848;9.000;2023-03-14T01:13:38;94372.56;;;8.30;100.00
56038;BME280;41907;47.848;9.000;2023-03-14T01:16:05;94377.69;;;8.35;100.00
56038;BME280;41907;47.848;9.000;2023-03-14T01:18:32;94379.13;;;8.32;100.00
56038;BME280;41907;47.848;9.000;2023-03-14T01:20:58;94383.25;;;8.42;100.00
56038;BME280;41907;47.848;9.000;2023-03-14T01:23:23;94387.78;;;8.41;100.00
56038;BME280;41907;47.848;9.000;2023-03-14T01:25:49;94366.47;;;8.29;100.00
56038;BME280;41907;47.848;9.000;2023-03-14T01:28:14;94363.34;;;8.27;100.00
56038;BME280;41907;47.848;9.000;2023-03-14T01:30:39;94356.88;;;8.16;100.00
56038;BME280;41907;47.848;9.000;2023-03-14T01:33:05;94362.19;;;8.16;100.00
56038;BME280;41907;47.848;9.000;2023-03-14T01:35:30;94370.16;;;8.16;100.00
56038;BME280;41907;47.848;9.000;2023-03-14T01:37:55;94357.81;;;8.20;100.00
56038;BME280;41907;47.848;9.000;2023-03-14T01:40:21;94357.66;;;8.16;100.00
56038;BME280;41907;47.848;9.000;2023-03-14T01:42:54;94345.31;;;8.20;100.00
56038;BME280;41907;47.848;9.000;2023-03-14T01:48:23;94335.41;;;8.09;100.00
56038;BME280;41907;47.848;9.000;2023-03-14T01:50:49;94333.63;;;8.13;100.00
56038;BME280;41907;47.848;9.000;2023-03-14T01:53:14;94327.88;;;8.11;100.00
56038;BME280;41907;47.848;9.000;2023-03-14T01:55:40;94336.09;;;8.18;100.00
56038;BME280;41907;47.848;9.000;2023-03-14T01:58:05;94319.38;;;8.17;100.00
56038;BME280;41907;47.848;9.000;2023-03-14T02:00:31;94310.06;;;8.11;100.00
56038;BME280;41907;47.848;9.000;2023-03-14T02:03:05;94295.25;;;8.10;100.00
56038;BME280;41907;47.848;9.000;2023-03-14T02:05:34;94293.00;;;8.00;100.00
56038;BME280;41907;47.848;9.000;2023-03-14T02:08:04;94299.97;;;8.05;100.00
56038;BME280;41907;47.848;9.000;2023-03-14T02:10:33;94300.28;;;8.03;100.00
56038;BME280;41907;47.848;9.000;2023-03-14T02:13:02;94302.28;;;8.06;100.00
56038;BME280;41907;47.848;9.000;2023-03-14T02:15:28;94301.28;;;7.99;100.00
56038;BME280;41907;47.848;9.000;2023-03-14T02:17:54;94282.56;;;7.95;100.00
56038;BME280;41907;47.848;9.000;2023-03-14T02:23:17;94282.69;;;7.99;100.00
56038;BME280;41907;47.848;9.000;2023-03-14T02:25:59;94290.84;;;7.94;100.00
56038;BME280;41907;47.848;9.000;2023-03-14T02:28:27;94284.88;;;7.97;100.00
56038;BME280;41907;47.848;9.000;2023-03-14T02:30:52;94294.47;;;7.89;100.00
56038;BME280;41907;47.848;9.000;2023-03-14T02:33:19;94292.41;;;7.95;100.00
56038;BME280;41907;47.848;9.000;2023-03-14T02:36:00;94292.72;;;7.93;100.00
56038;BME280;41907;47.848;9.000;2023-03-14T02:38:47;94290.84;;;7.94;100.00
56038;BME280;41907;47.848;9.000;2023-03-14T02:41:15;94292.94;;;7.88;100.00
56038;BME280;41907;47.848;9.000;2023-03-14T02:43:41;94277.97;;;7.83;100.00
56038;BME280;41907;47.848;9.000;2023-03-14T02:46:10;94279.66;;;7.88;100.00
56038;BME280;41907;47.848;9.000;2023-03-14T02:48:43;94270.69;;;7.93;100.00
56038;BME280;41907;47.848;9.000;2023-03-14T02:51:10;94267.63;;;7.91;100.00
56038;BME280;41907;47.848;9.000;2023-03-14T02:53:37;94264.38;;;7.85;100.00
56038;BME280;41907;47.848;9.000;2023-03-14T02:56:03;94258.75;;;7.87;100.00
56038;BME280;41907;47.848;9.000;2023-03-14T02:58:30;94268.03;;;7.93;100.00
56038;BME280;41907;47.848;9.000;2023-03-14T03:00:56;94253.88;;;7.89;100.00
56038;BME280;41907;47.848;9.000;2023-03-14T03:03:21;94259.38;;;7.83;100.00
56038;BME280;41907;47.848;9.000;2023-03-14T03:05:51;94247.66;;;7.84;100.00
56038;BME280;41907;47.848;9.000;2023-03-14T03:08:18;94241.00;;;7.78;100.00
56038;BME280;41907;47.848;9.000;2023-03-14T03:10:43;94236.16;;;7.80;100.00
56038;BME280;41907;47.848;9.000;2023-03-14T03:13:09;94223.84;;;7.76;100.00
56038;BME280;41907;47.848;9.000;2023-03-14T03:15:34;94222.50;;;7.70;100.00
56038;BME280;41907;47.848;9.000;2023-03-14T03:17:59;94223.16;;;7.67;100.00
56038;BME280;41907;47.848;9.000;2023-03-14T03:20:25;94225.50;;;7.68;100.00
56038;BME280;41907;47.848;9.000;2023-03-14T03:22:50;94238.75;;;7.68;100.00
56038;BME280;41907;47.848;9.000;2023-03-14T03:25:16;94233.91;;;7.70;100.00
56038;BME280;41907;47.848;9.000;2023-03-14T03:27:41;94236.31;;;7.63;100.00
56038;BME280;41907;47.848;9.000;2023-03-14T03:30:07;94233.84;;;7.58;100.00
56038;BME280;41907;47.848;9.000;2023-03-14T03:32:33;94237.28;;;7.59;100.00
56038;BME280;41907;47.848;9.000;2023-03-14T03:34:58;94242.72;;;7.62;100.00
56038;BME280;41907;47.848;9.000;2023-03-14T03:37:24;94240.84;;;7.63;100.00
56038;BME280;41907;47.848;9.000;2023-03-14T03:39:50;94242.59;;;7.59;100.00
56038;BME280;41907;47.848;9.000;2023-03-14T03:42:16;94237.09;;;7.64;100.00
56038;BME280;41907;47.848;9.000;2023-03-14T03:44:41;94234.16;;;7.57;100.00
56038;BME280;41907;47.848;9.000;2023-03-14T03:47:06;94230.72;;;7.56;100.00
56038;BME280;41907;47.848;9.000;2023-03-14T03:49:32;94235.53;;;7.63;100.00
56038;BME280;41907;47.848;9.000;2023-03-14T03:51:58;94233.53;;;7.60;100.00
56038;BME280;41907;47.848;9.000;2023-03-14T03:54:23;94229.19;;;7.55;100.00
56038;BME280;41907;47.848;9.000;2023-03-14T03:56:49;94218.00;;;7.50;100.00
56038;BME280;41907;47.848;9.000;2023-03-14T03:59:14;94228.22;;;7.60;100.00
56038;BME280;41907;47.848;9.000;2023-03-14T04:01:40;94225.88;;;7.58;100.00
56038;BME280;41907;47.848;9.000;2023-03-14T04:04:05;94234.16;;;7.57;100.00
56038;BME280;41907;47.848;9.000;2023-03-14T04:06:31;94226.53;;;7.55;100.00
56038;BME280;41907;47.848;9.000;2023-03-14T04:08:56;94229.53;;;7.54;100.00
56038;BME280;41907;47.848;9.000;2023-03-14T04:11:21;94216.75;;;7.47;100.00
56038;BME280;41907;47.848;9.000;2023-03-14T04:13:47;94216.66;;;7.43;100.00
56038;BME280;41907;47.848;9.000;2023-03-14T04:16:18;94218.84;;;7.41;100.00
56038;BME280;41907;47.848;9.000;2023-03-14T04:18:43;94205.75;;;7.36;100.00
56038;BME280;41907;47.848;9.000;2023-03-14T04:21:09;94198.09;;;7.43;100.00
56038;BME280;41907;47.848;9.000;2023-03-14T04:23:34;94199.50;;;7.41;100.00
56038;BME280;41907;47.848;9.000;2023-03-14T04:25:59;94192.19;;;7.38;100.00
56038;BME280;41907;47.848;9.000;2023-03-14T04:28:25;94187.16;;;7.45;100.00
56038;BME280;41907;47.848;9.000;2023-03-14T04:30:50;94190.91;;;7.44;100.00
56038;BME280;41907;47.848;9.000;2023-03-14T04:33:16;94183.25;;;7.42;100.00
56038;BME280;41907;47.848;9.000;2023-03-14T04:35:45;94182.16;;;7.43;100.00
56038;BME280;41907;47.848;9.000;2023-03-14T04:38:11;94178.13;;;7.37;100.00
56038;BME280;41907;47.848;9.000;2023-03-14T04:40:38;94174.38;;;7.38;100.00
56038;BME280;41907;47.848;9.000;2023-03-14T04:43:03;94178.75;;;7.43;100.00
56038;BME280;41907;47.848;9.000;2023-03-14T04:45:29;94178.84;;;7.46;100.00
56038;BME280;41907;47.848;9.000;2023-03-14T04:47:54;94176.09;;;7.43;100.00
56038;BME280;41907;47.848;9.000;2023-03-14T04:50:19;94175.63;;;7.41;100.00
56038;BME280;41907;47.848;9.000;2023-03-14T04:52:45;94175.88;;;7.48;100.00
56038;BME280;41907;47.848;9.000;2023-03-14T04:55:10;94168.81;;;7.52;100.00
56038;BME280;41907;47.848;9.000;2023-03-14T04:57:35;94171.25;;;7.57;100.00
56038;BME280;41907;47.848;9.000;2023-03-14T05:00:01;94172.97;;;7.62;100.00
56038;BME280;41907;47.848;9.000;2023-03-14T05:02:31;94167.41;;;7.55;100.00
56038;BME280;41907;47.848;9.000;2023-03-14T05:04:56;94162.66;;;7.60;100.00
56038;BME280;41907;47.848;9.000;2023-03-14T05:07:22;94163.75;;;7.59;100.00
56038;BME280;41907;47.848;9.000;2023-03-14T05:09:47;94143.63;;;7.58;100.00
56038;BME280;41907;47.848;9.000;2023-03-14T05:12:12;94137.44;;;7.54;100.00
56038;BME280;41907;47.848;9.000;2023-03-14T05:14:37;94137.63;;;7.49;100.00
56038;BME280;41907;47.848;9.000;2023-03-14T05:17:04;94128.66;;;7.41;100.00
56038;BME280;41907;47.848;9.000;2023-03-14T05:19:29;94116.97;;;7.42;100.00
56038;BME280;41907;47.848;9.000;2023-03-14T05:21:55;94105.44;;;7.38;100.00
56038;BME280;41907;47.848;9.000;2023-03-14T05:24:20;94109.00;;;7.42;100.00
56038;BME280;41907;47.848;9.000;2023-03-14T05:26:46;94106.88;;;7.36;100.00
56038;BME280;41907;47.848;9.000;2023-03-14T05:29:11;94106.53;;;7.37;100.00
56038;BME280;41907;47.848;9.000;2023-03-14T05:31:36;94109.97;;;7.38;100.00
56038;BME280;41907;47.848;9.000;2023-03-14T05:34:02;94104.03;;;7.41;100.00
56038;BME280;41907;47.848;9.000;2023-03-14T05:36:27;94101.50;;;7.44;100.00
56038;BME280;41907;47.848;9.000;2023-03-14T05:38:52;94093.09;;;7.42;100.00
56038;BME280;41907;47.848;9.000;2023-03-14T05:41:17;94090.44;;;7.42;100.00
56038;BME280;41907;47.848;9.000;2023-03-14T05:43:43;94085.22;;;7.46;100.00
56038;BME280;41907;47.848;9.000;2023-03-14T05:46:08;94080.16;;;7.41;100.00
56038;BME280;41907;47.848;9.000;2023-03-14T05:48:34;94070.88;;;7.47;100.00
56038;BME280;41907;47.848;9.000;2023-03-14T05:50:59;94070.00;;;7.43;100.00
56038;BME280;41907;47.848;9.000;2023-03-14T05:53:25;94064.38;;;7.44;100.00
56038;BME280;41907;47.848;9.000;2023-03-14T05:55:54;94069.09;;;7.39;100.00
56038;BME280;41907;47.848;9.000;2023-03-14T05:58:19;94064.44;;;7.36;100.00
56038;BME280;41907;47.848;9.000;2023-03-14T06:00:45;94048.97;;;7.38;100.00
56038;BME280;41907;47.848;9.000;2023-03-14T06:03:10;94045.22;;;7.39;100.00
56038;BME280;41907;47.848;9.000;2023-03-14T06:05:36;94036.38;;;7.35;100.00
56038;BME280;41907;47.848;9.000;2023-03-14T06:08:01;94033.81;;;7.38;100.00
56038;BME280;41907;47.848;9.000;2023-03-14T06:10:26;94026.47;;;7.44;100.00
56038;BME280;41907;47.848;9.000;2023-03-14T06:12:52;94026.00;;;7.42;100.00
56038;BME280;41907;47.848;9.000;2023-03-14T06:15:17;94013.50;;;7.42;100.00
56038;BME280;41907;47.848;9.000;2023-03-14T06:17:42;94023.03;;;7.43;100.00
56038;BME280;41907;47.848;9.000;2023-03-14T06:20:08;94007.75;;;7.40;100.00
56038;BME280;41907;47.848;9.000;2023-03-14T06:22:34;94007.97;;;7.47;100.00
56038;BME280;41907;47.848;9.000;2023-03-14T06:24:59;94009.34;;;7.54;100.00
56038;BME280;41907;47.848;9.000;2023-03-14T06:27:25;94010.31;;;7.49;100.00
56038;BME280;41907;47.848;9.000;2023-03-14T06:29:50;94019.50;;;7.52;100.00
56038;BME280;41907;47.848;9.000;2023-03-14T06:32:15;94012.78;;;7.54;100.00
56038;BME280;41907;47.848;9.000;2023-03-14T06:34:41;94015.53;;;7.58;100.00
56038;BME280;41907;47.848;9.000;2023-03-14T06:37:06;94014.09;;;7.60;100.00
56038;BME280;41907;47.848;9.000;2023-03-14T06:39:32;94018.31;;;7.61;100.00
56038;BME280;41907;47.848;9.000;2023-03-14T06:41:57;94032.13;;;7.55;100.00
56038;BME280;41907;47.848;9.000;2023-03-14T06:44:22;94027.03;;;7.62;100.00
56038;BME280;41907;47.848;9.000;2023-03-14T06:46:48;94023.06;;;7.68;100.00
56038;BME280;41907;47.848;9.000;2023-03-14T06:49:13;94015.41;;;7.66;100.00
56038;BME280;41907;47.848;9.000;2023-03-14T06:51:38;94017.28;;;7.66;100.00
56038;BME280;41907;47.848;9.000;2023-03-14T06:54:04;94028.16;;;7.73;100.00
56038;BME280;41907;47.848;9.000;2023-03-14T06:56:29;94021.16;;;7.68;100.00
56038;BME280;41907;47.848;9.000;2023-03-14T06:58:54;94013.66;;;7.70;100.00
56038;BME280;41907;47.848;9.000;2023-03-14T07:01:25;94018.09;;;7.78;100.00
56038;BME280;41907;47.848;9.000;2023-03-14T07:03:51;94011.69;;;7.79;100.00
56038;BME280;41907;47.848;9.000;2023-03-14T07:06:16;94019.63;;;7.79;100.00
56038;BME280;41907;47.848;9.000;2023-03-14T07:08:42;94023.94;;;7.84;100.00
56038;BME280;41907;47.848;9.000;2023-03-14T07:11:08;94029.13;;;7.93;100.00
56038;BME280;41907;47.848;9.000;2023-03-14T07:13:35;94027.91;;;8.02;100.00
56038;BME280;41907;47.848;9.000;2023-03-14T07:16:00;94021.97;;;8.17;100.00
56038;BME280;41907;47.848;9.000;2023-03-14T07:18:25;94023.47;;;8.55;100.00
56038;BME280;41907;47.848;9.000;2023-03-14T07:20:51;94025.69;;;8.65;100.00
56038;BME280;41907;47.848;9.000;2023-03-14T07:23:16;94035.56;;;8.92;100.00
56038;BME280;41907;47.848;9.000;2023-03-14T07:25:41;94040.28;;;9.86;98.01
56038;BME280;41907;47.848;9.000;2023-03-14T07:28:07;94046.19;;;11.35;91.43
56038;BME280;41907;47.848;9.000;2023-03-14T07:30:32;94052.06;;;11.64;86.83
56038;BME280;41907;47.848;9.000;2023-03-14T07:32:57;94051.75;;;13.50;79.68
56038;BME280;41907;47.848;9.000;2023-03-14T07:35:23;94052.78;;;13.08;75.65
56038;BME280;41907;47.848;9.000;2023-03-14T07:37:48;94047.50;;;11.64;80.42
56038;BME280;41907;47.848;9.000;2023-03-14T07:40:13;94052.75;;;11.38;83.26
56038;BME280;41907;47.848;9.000;2023-03-14T07:42:42;94044.84;;;12.59;78.39
56038;BME280;41907;47.848;9.000;2023-03-14T07:45:09;94041.78;;;13.87;71.25
56038;BME280;41907;47.848;9.000;2023-03-14T07:47:34;94053.00;;;14.99;65.93
56038;BME280;41907;47.848;9.000;2023-03-14T07:50:00;94038.56;;;15.32;61.45
56038;BME280;41907;47.848;9.000;2023-03-14T07:52:25;94037.09;;;15.52;61.43
56038;BME280;41907;47.848;9.000;2023-03-14T07:54:50;94030.31;;;15.97;59.38
56038;BME280;41907;47.848;9.000;2023-03-14T07:57:16;94032.66;;;16.30;57.07
56038;BME280;41907;47.848;9.000;2023-03-14T07:59:41;94035.53;;;17.28;55.37
56038;BME280;41907;47.848;9.000;2023-03-14T08:02:10;94039.34;;;17.45;53.70
56038;BME280;41907;47.848;9.000;2023-03-14T08:04:37;94045.91;;;17.37;52.79
56038;BME280;41907;47.848;9.000;2023-03-14T08:07:03;94057.63;;;16.73;53.54
56038;BME280;41907;47.848;9.000;2023-03-14T08:09:28;94062.94;;;15.85;56.92
56038;BME280;41907;47.848;9.000;2023-03-14T08:11:53;94060.81;;;14.15;63.53
56038;BME280;41907;47.848;9.000;2023-03-14T08:14:19;94058.22;;;13.82;65.70
56038;BME280;41907;47.848;9.000;2023-03-14T08:16:44;94060.31;;;14.03;65.31
56038;BME280;41907;47.848;9.000;2023-03-14T08:19:09;94058.75;;;16.26;58.82
56038;BME280;41907;47.848;9.000;2023-03-14T08:21:34;94064.50;;;16.92;56.58
56038;BME280;41907;47.848;9.000;2023-03-14T08:24:00;94057.25;;;16.64;55.80
56038;BME280;41907;47.848;9.000;2023-03-14T08:26:26;94067.19;;;15.03;60.34
56038;BME280;41907;47.848;9.000;2023-03-14T08:28:51;94068.84;;;14.15;64.53
56038;BME280;41907;47.848;9.000;2023-03-14T08:31:16;94065.66;;;13.62;67.42
56038;BME280;41907;47.848;9.000;2023-03-14T08:33:42;94053.16;;;13.40;68.53
56038;BME280;41907;47.848;9.000;2023-03-14T08:36:08;94056.59;;;13.07;69.92
56038;BME280;41907;47.848;9.000;2023-03-14T08:38:33;94063.53;;;12.82;72.05
56038;BME280;41907;47.848;9.000;2023-03-14T08:41:00;94051.75;;;13.16;69.16
56038;BME280;41907;47.848;9.000;2023-03-14T08:43:26;94058.38;;;13.26;67.51
56038;BME280;41907;47.848;9.000;2023-03-14T08:45:51;94049.22;;;13.64;65.04
56038;BME280;41907;47.848;9.000;2023-03-14T08:48:16;94055.28;;;16.33;56.58
56038;BME280;41907;47.848;9.000;2023-03-14T08:50:42;94050.25;;;14.88;58.55
56038;BME280;41907;47.848;9.000;2023-03-14T08:53:07;94060.66;;;13.98;62.13
56038;BME280;41907;47.848;9.000;2023-03-14T08:55:33;94070.03;;;13.11;65.28
56038;BME280;41907;47.848;9.000;2023-03-14T08:57:58;94059.31;;;13.11;66.12
56038;BME280;41907;47.848;9.000;2023-03-14T09:00:24;94068.41;;;12.50;68.29
56038;BME280;41907;47.848;9.000;2023-03-14T09:02:50;94070.66;;;13.64;65.80
56038;BME280;41907;47.848;9.000;2023-03-14T09:05:15;94079.38;;;15.62;59.35
56038;BME280;41907;47.848;9.000;2023-03-14T09:07:41;94083.41;;;15.17;58.60
56038;BME280;41907;47.848;9.000;2023-03-14T09:10:07;94086.06;;;14.11;60.90
56038;BME280;41907;47.848;9.000;2023-03-14T09:12:33;94082.38;;;13.49;64.60
56038;BME280;41907;47.848;9.000;2023-03-14T09:14:58;94094.16;;;13.44;65.54
56038;BME280;41907;47.848;9.000;2023-03-14T09:17:24;94102.41;;;13.62;63.44
56038;BME280;41907;47.848;9.000;2023-03-14T09:19:49;94096.25;;;13.28;65.34
56038;BME280;41907;47.848;9.000;2023-03-14T09:22:15;94102.34;;;12.98;64.70
56038;BME280;41907;47.848;9.000;2023-03-14T09:24:41;94103.94;;;12.27;66.71
56038;BME280;41907;47.848;9.000;2023-03-14T09:27:07;94106.75;;;12.12;68.62
56038;BME280;41907;47.848;9.000;2023-03-14T09:29:32;94112.00;;;11.85;69.49
56038;BME280;41907;47.848;9.000;2023-03-14T09:31:58;94103.56;;;11.83;69.25
56038;BME280;41907;47.848;9.000;2023-03-14T09:34:24;94118.56;;;11.49;71.78
56038;BME280;41907;47.848;9.000;2023-03-14T09:36:49;94122.91;;;11.19;71.83
56038;BME280;41907;47.848;9.000;2023-03-14T09:39:14;94118.88;;;11.09;73.58
56038;BME280;41907;47.848;9.000;2023-03-14T09:41:44;94121.13;;;11.07;73.43
56038;BME280;41907;47.848;9.000;2023-03-14T09:44:16;94128.16;;;11.15;73.03
56038;BME280;41907;47.848;9.000;2023-03-14T09:46:47;94114.72;;;10.93;73.98
56038;BME280;41907;47.848;9.000;2023-03-14T09:49:25;94123.31;;;10.86;75.59
56038;BME280;41907;47.848;9.000;2023-03-14T09:51:53;94117.94;;;10.82;75.89
56038;BME280;41907;47.848;9.000;2023-03-14T09:54:37;94132.69;;;10.96;76.33
56038;BME280;41907;47.848;9.000;2023-03-14T09:57:05;94126.75;;;11.02;74.96
56038;BME280;41907;47.848;9.000;2023-03-14T09:59:31;94120.75;;;10.90;76.56
56038;BME280;41907;47.848;9.000;2023-03-14T10:02:01;94120.78;;;11.09;76.42
56038;BME280;41907;47.848;9.000;2023-03-14T10:04:27;94129.22;;;11.11;75.58
56038;BME280;41907;47.848;9.000;2023-03-14T10:06:55;94135.13;;;11.20;75.95
56038;BME280;41907;47.848;9.000;2023-03-14T10:09:22;94131.78;;;11.07;75.72
56038;BME280;41907;47.848;9.000;2023-03-14T10:11:57;94136.22;;;11.00;76.21
56038;BME280;41907;47.848;9.000;2023-03-14T10:14:30;94134.00;;;10.86;77.81
56038;BME280;41907;47.848;9.000;2023-03-14T10:17:05;94132.53;;;10.89;76.44
56038;BME280;41907;47.848;9.000;2023-03-14T10:19:31;94131.00;;;11.23;75.40
56038;BME280;41907;47.848;9.000;2023-03-14T10:21:56;94128.81;;;11.28;74.22
56038;BME280;41907;47.848;9.000;2023-03-14T10:27:20;94147.84;;;12.04;70.13
56038;BME280;41907;47.848;9.000;2023-03-14T10:30:00;94149.63;;;11.57;71.96
56038;BME280;41907;47.848;9.000;2023-03-14T10:32:33;94164.53;;;11.24;73.62
56038;BME280;41907;47.848;9.000;2023-03-14T10:37:55;94158.56;;;11.11;75.17
56038;BME280;41907;47.848;9.000;2023-03-14T10:40:28;94160.41;;;10.91;75.77
56038;BME280;41907;47.848;9.000;2023-03-14T10:42:55;94162.50;;;10.66;78.79
56038;BME280;41907;47.848;9.000;2023-03-14T10:48:19;94177.28;;;10.48;80.71
56038;BME280;41907;47.848;9.000;2023-03-14T10:53:19;94183.31;;;10.29;84.40
56038;BME280;41907;47.848;9.000;2023-03-14T10:55:45;94180.56;;;10.26;84.24
56038;BME280;41907;47.848;9.000;2023-03-14T10:58:22;94190.00;;;10.23;85.00
56038;BME280;41907;47.848;9.000;2023-03-14T11:01:00;94195.28;;;10.07;87.84
56038;BME280;41907;47.848;9.000;2023-03-14T11:03:29;94209.78;;;9.94;89.19
56038;BME280;41907;47.848;9.000;2023-03-14T11:05:59;94211.38;;;9.83;93.22
56038;BME280;41907;47.848;9.000;2023-03-14T11:08:35;94199.41;;;9.49;95.46
56038;BME280;41907;47.848;9.000;2023-03-14T11:11:07;94217.19;;;9.33;96.52
56038;BME280;41907;47.848;9.000;2023-03-14T11:13:48;94202.56;;;9.27;98.78
56038;BME280;41907;47.848;9.000;2023-03-14T11:16:31;94216.44;;;9.08;100.00
56038;BME280;41907;47.848;9.000;2023-03-14T11:27:11;94235.75;;;9.05;100.00
56038;BME280;41907;47.848;9.000;2023-03-14T11:29:41;94250.91;;;9.17;100.00
56038;BME280;41907;47.848;9.000;2023-03-14T11:32:17;94248.34;;;9.08;100.00
56038;BME280;41907;47.848;9.000;2023-03-14T11:34:50;94248.16;;;9.01;100.00
56038;BME280;41907;47.848;9.000;2023-03-14T11:37:25;94251.13;;;9.12;100.00
56038;BME280;41907;47.848;9.000;2023-03-14T11:40:00;94253.34;;;8.98;100.00
56038;BME280;41907;47.848;9.000;2023-03-14T11:42:32;94255.78;;;8.78;100.00
56038;BME280;41907;47.848;9.000;2023-03-14T11:44:59;94265.63;;;8.66;100.00
56038;BME280;41907;47.848;9.000;2023-03-14T11:47:30;94265.63;;;8.66;100.00
56038;BME280;41907;47.848;9.000;2023-03-14T11:50:14;94269.16;;;8.57;100.00
56038;BME280;41907;47.848;9.000;2023-03-14T11:55:25;94272.72;;;8.29;100.00
56038;BME280;41907;47.848;9.000;2023-03-14T11:58:00;94272.13;;;8.44;100.00
56038;BME280;41907;47.848;9.000;2023-03-14T12:00:26;94269.81;;;8.21;100.00
56038;BME280;41907;47.848;9.000;2023-03-14T12:03:09;94274.03;;;8.22;100.00
56038;BME280;41907;47.848;9.000;2023-03-14T12:08:38;94290.66;;;7.99;100.00
56038;BME280;41907;47.848;9.000;2023-03-14T12:13:50;94289.28;;;7.93;100.00
56038;BME280;41907;47.848;9.000;2023-03-14T12:16:24;94299.56;;;7.94;100.00
56038;BME280;41907;47.848;9.000;2023-03-14T12:18:51;94290.28;;;7.88;100.00
56038;BME280;41907;47.848;9.000;2023-03-14T12:21:18;94304.25;;;7.97;100.00
56038;BME280;41907;47.848;9.000;2023-03-14T12:28:42;94308.31;;;7.74;100.00
56038;BME280;41907;47.848;9.000;2023-03-14T12:34:03;94309.06;;;7.62;100.00
56038;BME280;41907;47.848;9.000;2023-03-14T12:37:05;94324.66;;;7.64;100.00
56038;BME280;41907;47.848;9.000;2023-03-14T12:44:52;94326.66;;;7.37;100.00
56038;BME280;41907;47.848;9.000;2023-03-14T12:49:43;94347.03;;;7.54;100.00
56038;BME280;41907;47.848;9.000;2023-03-14T12:52:36;94337.94;;;7.55;100.00
56038;BME280;41907;47.848;9.000;2023-03-14T12:59:58;94367.47;;;7.54;100.00
56038;BME280;41907;47.848;9.000;2023-03-14T13:05:02;94446.38;;;7.36;100.00
56038;BME280;41907;47.848;9.000;2023-03-14T13:12:42;94479.03;;;7.57;100.00
56038;BME280;41907;47.848;9.000;2023-03-14T13:15:22;94488.22;;;7.60;100.00
56038;BME280;41907;47.848;9.000;2023-03-14T13:17:49;94476.81;;;7.68;100.00
56038;BME280;41907;47.848;9.000;2023-03-14T13:20:28;94503.63;;;7.28;100.00
56038;BME280;41907;47.848;9.000;2023-03-14T13:22:54;94496.59;;;7.32;100.00
56038;BME280;41907;47.848;9.000;2023-03-14T13:25:19;94509.72;;;7.20;100.00
56038;BME280;41907;47.848;9.000;2023-03-14T13:27:47;94506.13;;;7.25;98.71
56038;BME280;41907;47.848;9.000;2023-03-14T13:32:42;94530.28;;;7.40;100.00
56038;BME280;41907;47.848;9.000;2023-03-14T13:35:21;94534.19;;;7.43;98.67
56038;BME280;41907;47.848;9.000;2023-03-14T13:37:52;94544.28;;;7.50;97.99
56038;BME280;41907;47.848;9.000;2023-03-14T13:40:26;94545.41;;;7.40;95.27
56038;BME280;41907;47.848;9.000;2023-03-14T13:43:02;94547.38;;;7.60;96.20
56038;BME280;41907;47.848;9.000;2023-03-14T13:45:29;94556.66;;;7.83;93.76
56038;BME280;41907;47.848;9.000;2023-03-14T13:47:55;94554.34;;;8.20;88.97
56038;BME280;41907;47.848;9.000;2023-03-14T13:50:20;94561.34;;;8.54;87.03
56038;BME280;41907;47.848;9.000;2023-03-14T13:52:45;94557.78;;;8.71;84.32
56038;BME280;41907;47.848;9.000;2023-03-14T13:55:16;94571.41;;;8.90;84.46
56038;BME280;41907;47.848;9.000;2023-03-14T13:57:50;94589.75;;;8.62;83.24
56038;BME280;41907;47.848;9.000;2023-03-14T14:00:24;94581.06;;;8.74;80.89
56038;BME280;41907;47.848;9.000;2023-03-14T14:03:01;94573.50;;;8.84;82.13
56038;BME280;41907;47.848;9.000;2023-03-14T14:05:27;94595.25;;;8.78;83.81